Time;durP1;ratioP1;P1;durP2;ratioP2;P2;SDS_P1;SDS_P2;PMS_P1;PMS_P2;Temp;Humidity;BMP_temperature;BMP_pressure;BME280_temperature;BME280_humidity;BME280_pressure;Samples;Min_cycle;Max_cycle;Signal;HPM_P1;HPM_P2
2022/08/27 00:01:15;;;;;;;;;;;;;;;;;;5033715;28;1147;-72
2022/08/27 00:03:41;;;;;;;;;;;;;;;;;;5051485;28;1434;-73
2022/08/27 00:06:09;;;;;;;;;;;;;;;;;;5033629;28;1261;-73
2022/08/27 00:08:35;;;;;;;;;;;;;;;;;;5051739;28;1056;-73
2022/08/27 00:11:01;;;;;;;;;;;;;;;;;;5051952;28;882;-73
2022/08/27 00:13:27;;;;;;;;;;;;;;;;;;5051277;28;1278;-73
2022/08/27 00:15:53;;;;;;;;;;;;;;;;;;5033423;28;1108;-73
2022/08/27 00:18:20;;;;;;;;;;;;;;;;;;5051293;28;1918;-73
2022/08/27 00:20:46;;;;;;;;;;;;;;;;;;5051254;28;841;-73
2022/08/27 00:23:13;;;;;;;;;;;;;;;;;;5050859;28;1288;-73
2022/08/27 00:25:40;;;;;;;;;;;;;;;;;;5051166;28;1116;-73
2022/08/27 00:28:06;;;;;;;;;;;;;;;;;;5051185;28;811;-73
2022/08/27 00:30:32;;;;;;;;;;;;;;;;;;5051067;28;1127;-73
2022/08/27 00:32:58;;;;;;;;;;;;;;;;;;5032864;28;1395;-72
2022/08/27 00:35:25;;;;;;;;;;;;;;;;;;5033296;28;1296;-73
2022/08/27 00:37:52;;;;;;;;;;;;;;;;;;5051003;28;1931;-73
2022/08/27 00:40:20;;;;;;;;;;;;;;;;;;5051350;28;1130;-73
2022/08/27 00:42:46;;;;;;;;;;;;;;;;;;5050645;28;1375;-73
2022/08/27 00:45:13;;;;;;;;;;;;;;;;;;5033383;28;1216;-73
2022/08/27 00:47:40;;;;;;;;;;;;;;;;;;5050960;28;1059;-73
2022/08/27 00:50:08;;;;;;;;;;;;;;;;;;5051119;28;1118;-73
2022/08/27 00:52:35;;;;;;;;;;;;;;;;;;5050684;28;1285;-73
2022/08/27 00:55:04;;;;;;;;;;;;;;;;;;5051007;28;1025;-72
2022/08/27 00:57:31;;;;;;;;;;;;;;;;;;5051110;28;1914;-73
2022/08/27 00:59:58;;;;;;;;;;;;;;;;;;5050786;28;940;-73
2022/08/27 01:02:28;;;;;;;;;;;;;;;;;;5050405;28;1360;-73
2022/08/27 01:04:55;;;;;;;;;;;;;;;;;;5032071;28;1274;-73
2022/08/27 01:07:21;;;;;;;;;;;;;;;;;;5050017;28;950;-73
2022/08/27 01:09:48;;;;;;;;;;;;;;;;;;5050066;28;1130;-73
2022/08/27 01:12:14;;;;;;;;;;;;;;;;;;5052963;28;1307;-73
2022/08/27 01:14:42;;;;;;;;;;;;;;;;;;5053471;28;1074;-73
2022/08/27 01:17:09;;;;;;;;;;;;;;;;;;5053406;28;1918;-73
2022/08/27 01:19:36;;;;;;;;;;;;;;;;;;5053365;28;1068;-73
2022/08/27 01:22:04;;;;;;;;;;;;;;;;;;5052755;28;1329;-73
2022/08/27 01:24:33;;;;;;;;;;;;;;;;;;5035307;28;1065;-73
2022/08/27 01:26:59;;;;;;;;;;;;;;;;;;5053309;28;945;-73
2022/08/27 01:29:26;;;;;;;;;;;;;;;;;;5053101;28;883;-73
2022/08/27 01:31:52;;;;;;;;;;;;;;;;;;5052735;28;1391;-72
2022/08/27 01:34:18;;;;;;;;;;;;;;;;;;5035351;28;1173;-73
2022/08/27 01:36:44;;;;;;;;;;;;;;;;;;5052858;28;1965;-73
2022/08/27 01:39:11;;;;;;;;;;;;;;;;;;5053167;28;882;-73
2022/08/27 01:41:38;;;;;;;;;;;;;;;;;;5052581;28;1318;-73
2022/08/27 01:44:04;;;;;;;;;;;;;;;;;;5050075;28;1424;-73
2022/08/27 01:46:30;;;;;;;;;;;;;;;;;;5033131;28;1503;-73
2022/08/27 01:48:57;;;;;;;;;;;;;;;;;;5052684;28;1056;-73
2022/08/27 01:51:23;;;;;;;;;;;;;;;;;;5034724;28;1363;-70
2022/08/27 01:53:49;;;;;;;;;;;;;;;;;;5052644;28;880;-73
2022/08/27 01:56:16;;;;;;;;;;;;;;;;;;5053132;28;775;-73
2022/08/27 01:58:43;;;;;;;;;;;;;;;;;;5052708;28;1979;-73
2022/08/27 02:01:11;;;;;;;;;;;;;;;;;;5052794;28;953;-73
2022/08/27 02:03:38;;;;;;;;;;;;;;;;;;5018914;28;987713;-73
2022/08/27 02:06:05;;;;;;;;;;;;;;;;;;5053987;28;724;-73
2022/08/27 02:08:31;;;;;;;;;;;;;;;;;;5053030;28;1004;-73
2022/08/27 02:10:57;;;;;;;;;;;;;;;;;;5053194;28;1119;-72
2022/08/27 02:13:23;;;;;;;;;;;;;;;;;;5053343;28;1447;-73
2022/08/27 02:15:51;;;;;;;;;;;;;;;;;;5035645;28;1179;-73
2022/08/27 02:18:17;;;;;;;;;;;;;;;;;;5053431;28;1948;-73
2022/08/27 02:20:44;;;;;;;;;;;;;;;;;;5053544;28;1072;-73
2022/08/27 02:23:10;;;;;;;;;;;;;;;;;;5052024;28;1340;-73
2022/08/27 02:25:36;;;;;;;;;;;;;;;;;;5035519;28;1282;-73
2022/08/27 02:28:03;;;;;;;;;;;;;;;;;;5053463;28;1096;-73
2022/08/27 02:30:30;;;;;;;;;;;;;;;;;;5053552;28;1071;-73
2022/08/27 02:32:59;;;;;;;;;;;;;;;;;;5032477;28;1503;-71
2022/08/27 02:35:26;;;;;;;;;;;;;;;;;;5033417;28;1143;-73
2022/08/27 02:37:52;;;;;;;;;;;;;;;;;;5033269;28;1914;-73
2022/08/27 02:40:19;;;;;;;;;;;;;;;;;;5033515;28;1080;-73
2022/08/27 02:42:45;;;;;;;;;;;;;;;;;;5033847;28;1390;-73
2022/08/27 02:45:11;;;;;;;;;;;;;;;;;;5034556;28;819;-72
2022/08/27 02:47:38;;;;;;;;;;;;;;;;;;5033438;28;1073;-73
2022/08/27 02:50:06;;;;;;;;;;;;;;;;;;5015445;28;1107;-72
2022/08/27 02:52:32;;;;;;;;;;;;;;;;;;5032794;28;1512;-73
2022/08/27 02:54:59;;;;;;;;;;;;;;;;;;5033136;28;1123;-73
2022/08/27 02:57:25;;;;;;;;;;;;;;;;;;5033020;28;1910;-73
2022/08/27 02:59:51;;;;;;;;;;;;;;;;;;5032781;28;1135;-73
2022/08/27 03:02:17;;;;;;;;;;;;;;;;;;5014801;28;1460;-73
2022/08/27 03:04:44;;;;;;;;;;;;;;;;;;5076074;22;1988;-74
2022/08/27 03:07:11;;;;;;;;;;;;;;;;;;5072377;28;1078;-75
2022/08/27 03:09:37;;;;;;;;;;;;;;;;;;5054941;28;945;-75
2022/08/27 03:12:04;;;;;;;;;;;;;;;;;;5072207;28;1143;-75
2022/08/27 03:14:30;;;;;;;;;;;;;;;;;;5072497;28;1318;-75
2022/08/27 03:18:16;;;;;;;;;;;;;;;;;;5072434;28;917;-74
2022/08/27 03:19:41;;;;;;;;;;;;;;;;;;5054544;28;1433;-73
2022/08/27 03:22:07;;;;;;;;;;;;;;;;;;5072186;28;913;-76
2022/08/27 03:24:35;;;;;;;;;;;;;;;;;;5072154;28;1333;-76
2022/08/27 03:27:02;;;;;;;;;;;;;;;;;;5054612;28;960;-74
2022/08/27 03:29:28;;;;;;;;;;;;;;;;;;5054293;28;1327;-75
2022/08/27 03:31:54;;;;;;;;;;;;;;;;;;5071878;28;1071;-74
2022/08/27 03:34:21;;;;;;;;;;;;;;;;;;5053721;28;1338;-74
2022/08/27 03:36:50;;;;;;;;;;;;;;;;;;5083288;28;1529;-75
2022/08/27 03:39:16;;;;;;;;;;;;;;;;;;5092383;28;1993;-75
2022/08/27 03:41:43;;;;;;;;;;;;;;;;;;5091937;28;972;-74
2022/08/27 03:44:10;;;;;;;;;;;;;;;;;;5092327;28;1297;-75
2022/08/27 03:46:36;;;;;;;;;;;;;;;;;;5092146;28;1110;-74
2022/08/27 03:49:03;;;;;;;;;;;;;;;;;;5092341;28;963;-75
2022/08/27 03:51:29;;;;;;;;;;;;;;;;;;5091836;28;1109;-75
2022/08/27 03:53:55;;;;;;;;;;;;;;;;;;5092118;28;1390;-74
2022/08/27 03:56:22;;;;;;;;;;;;;;;;;;5091995;28;1118;-75
2022/08/27 03:58:49;;;;;;;;;;;;;;;;;;5073816;28;1914;-74
2022/08/27 04:01:16;;;;;;;;;;;;;;;;;;5073329;28;1266;-75
2022/08/27 04:03:43;;;;;;;;;;;;;;;;;;5091830;28;1394;-75
2022/08/27 04:06:09;;;;;;;;;;;;;;;;;;5091858;28;1095;-74
2022/08/27 04:08:35;;;;;;;;;;;;;;;;;;5091925;28;1059;-74
2022/08/27 04:11:04;;;;;;;;;;;;;;;;;;5091603;28;786;-74
2022/08/27 04:13:30;;;;;;;;;;;;;;;;;;5091819;28;1382;-74
2022/08/27 04:15:58;;;;;;;;;;;;;;;;;;5091782;28;937;-75
2022/08/27 04:18:24;;;;;;;;;;;;;;;;;;5091645;28;1918;-75
2022/08/27 04:20:51;;;;;;;;;;;;;;;;;;5091837;28;1122;-75
2022/08/27 04:23:17;;;;;;;;;;;;;;;;;;5091226;28;1435;-75
2022/08/27 04:25:44;;;;;;;;;;;;;;;;;;5073535;28;1247;-75
2022/08/27 04:28:11;;;;;;;;;;;;;;;;;;5091545;28;1011;-74
2022/08/27 04:30:38;;;;;;;;;;;;;;;;;;5073461;28;1357;-75
2022/08/27 04:33:05;;;;;;;;;;;;;;;;;;5091055;28;1474;-75
2022/08/27 04:35:31;;;;;;;;;;;;;;;;;;5054781;28;1506;-75
2022/08/27 04:37:58;;;;;;;;;;;;;;;;;;5070179;28;1977;-75
2022/08/27 04:41:18;;;;;;;;;;;;;;;;;;5064939;28;1301;-75
2022/08/27 04:43:12;;;;;;;;;;;;;;;;;;5070570;28;1302;-75
2022/08/27 04:45:42;;;;;;;;;;;;;;;;;;5072029;28;1395;-73
2022/08/27 04:48:09;;;;;;;;;;;;;;;;;;5048940;28;1169;-72
2022/08/27 04:50:38;;;;;;;;;;;;;;;;;;5073950;28;1519;-72
2022/08/27 04:53:04;;;;;;;;;;;;;;;;;;5074553;28;1300;-72
2022/08/27 04:55:31;;;;;;;;;;;;;;;;;;5075220;28;857;-72
2022/08/27 04:57:57;;;;;;;;;;;;;;;;;;5056982;28;1925;-72
2022/08/27 05:00:23;;;;;;;;;;;;;;;;;;5074909;28;1123;-72
2022/08/27 05:02:49;;;;;;;;;;;;;;;;;;5074923;28;1294;-72
2022/08/27 05:05:17;;;;;;;;;;;;;;;;;;5074744;28;962;-72
2022/08/27 05:07:44;;;;;;;;;;;;;;;;;;5075041;28;1052;-74
2022/08/27 05:10:10;;;;;;;;;;;;;;;;;;5056943;28;1111;-74
2022/08/27 05:12:37;;;;;;;;;;;;;;;;;;5074870;28;1072;-76
2022/08/27 05:15:03;;;;;;;;;;;;;;;;;;5074877;28;1403;-75
2022/08/27 05:17:30;;;;;;;;;;;;;;;;;;5074844;28;1134;-76
2022/08/27 05:19:56;;;;;;;;;;;;;;;;;;5056606;28;1918;-72
2022/08/27 05:22:24;;;;;;;;;;;;;;;;;;5056207;28;1198;-72
2022/08/27 05:24:50;;;;;;;;;;;;;;;;;;5045508;28;1612;-72
2022/08/27 05:27:16;;;;;;;;;;;;;;;;;;5055295;28;1329;-71
2022/08/27 05:29:42;;;;;;;;;;;;;;;;;;5064502;28;1411;-71
2022/08/27 05:32:09;;;;;;;;;;;;;;;;;;5072273;28;1276;-71
2022/08/27 05:34:35;;;;;;;;;;;;;;;;;;5072050;28;1371;-72
2022/08/27 05:37:01;;;;;;;;;;;;;;;;;;5072276;28;1113;-72
2022/08/27 05:39:29;;;;;;;;;;;;;;;;;;5054175;28;1944;-71
2022/08/27 05:41:56;;;;;;;;;;;;;;;;;;5082968;28;1431;-71
2022/08/27 05:44:22;;;;;;;;;;;;;;;;;;5070689;28;1388;-72
2022/08/27 05:46:48;;;;;;;;;;;;;;;;;;5071275;28;1352;-72
2022/08/27 05:49:15;;;;;;;;;;;;;;;;;;5045689;28;1417;-72
2022/08/27 05:51:41;;;;;;;;;;;;;;;;;;5071619;28;1091;-72
2022/08/27 05:54:10;;;;;;;;;;;;;;;;;;5070855;28;1399;-71
2022/08/27 05:56:37;;;;;;;;;;;;;;;;;;5053814;28;1170;-71
2022/08/27 06:01:49;;;;;;;;;;;;;;;;;;5070001;28;1399;-71
2022/08/27 06:04:16;;;;;;;;;;;;;;;;;;5071221;28;1377;-72
2022/08/27 06:06:42;;;;;;;;;;;;;;;;;;5071952;28;1154;-74
2022/08/27 06:09:09;;;;;;;;;;;;;;;;;;5068105;28;1407;-75
2022/08/27 06:11:36;;;;;;;;;;;;;;;;;;5071008;28;1223;-74
2022/08/27 06:14:03;;;;;;;;;;;;;;;;;;5070822;28;1377;-75
2022/08/27 06:16:29;;;;;;;;;;;;;;;;;;5068407;28;1372;-74
2022/08/27 06:18:56;;;;;;;;;;;;;;;;;;5071385;28;1914;-75
2022/08/27 06:21:23;;;;;;;;;;;;;;;;;;5069089;28;1071;-71
2022/08/27 06:23:49;;;;;;;;;;;;;;;;;;5062778;28;1482;-72
2022/08/27 06:26:16;;;;;;;;;;;;;;;;;;5070214;28;1193;-73
2022/08/27 06:28:43;;;;;;;;;;;;;;;;;;5069329;28;1629;-72
2022/08/27 06:31:11;;;;;;;;;;;;;;;;;;5059603;28;1321;-72
2022/08/27 06:33:38;;;;;;;;;;;;;;;;;;5046734;28;1455;-73
2022/08/27 06:36:06;;;;;;;;;;;;;;;;;;5068053;28;1224;-73
2022/08/27 06:38:32;;;;;;;;;;;;;;;;;;5070240;28;1917;-72
2022/08/27 06:40:58;;;;;;;;;;;;;;;;;;5070343;28;1200;-72
2022/08/27 06:43:25;;;;;;;;;;;;;;;;;;5066832;28;1419;-72
2022/08/27 06:45:51;;;;;;;;;;;;;;;;;;5067562;28;1229;-72
2022/08/27 06:48:18;;;;;;;;;;;;;;;;;;5053870;28;1317;-73
2022/08/27 06:50:45;;;;;;;;;;;;;;;;;;5060596;28;1338;-71
2022/08/27 06:53:11;;;;;;;;;;;;;;;;;;5069858;28;1386;-72
2022/08/27 06:55:40;;;;;;;;;;;;;;;;;;5072633;28;1101;-72
2022/08/27 06:58:06;;;;;;;;;;;;;;;;;;5072690;28;1977;-71
2022/08/27 07:00:32;;;;;;;;;;;;;;;;;;5071252;28;1471;-72
2022/08/27 07:03:00;;;;;;;;;;;;;;;;;;5071754;28;1281;-72
2022/08/27 07:05:27;;;;;;;;;;;;;;;;;;5072471;28;1067;-71
2022/08/27 07:07:54;;;;;;;;;;;;;;;;;;5071289;28;929;-73
2022/08/27 07:10:20;;;;;;;;;;;;;;;;;;5054526;28;1250;-72
2022/08/27 07:12:46;;;;;;;;;;;;;;;;;;5072070;28;1370;-70
2022/08/27 07:15:12;;;;;;;;;;;;;;;;;;5054398;28;1155;-72
2022/08/27 07:17:39;;;;;;;;;;;;;;;;;;5072407;28;1043;-73
2022/08/27 07:20:06;;;;;;;;;;;;;;;;;;5072360;28;1914;-73
2022/08/27 07:22:34;;;;;;;;;;;;;;;;;;5072072;28;1106;-72
2022/08/27 07:25:00;;;;;;;;;;;;;;;;;;5072387;28;1316;-71
2022/08/27 07:27:26;;;;;;;;;;;;;;;;;;5054282;28;1382;-72
2022/08/27 07:29:52;;;;;;;;;;;;;;;;;;5072311;28;1075;-72
2022/08/27 07:32:19;;;;;;;;;;;;;;;;;;5085777;28;1475;-70
2022/08/27 07:34:45;;;;;;;;;;;;;;;;;;5092274;28;1289;-73
2022/08/27 07:37:11;;;;;;;;;;;;;;;;;;5092208;28;1134;-73
2022/08/27 07:39:38;;;;;;;;;;;;;;;;;;5092276;28;1975;-72
2022/08/27 07:44:49;;;;;;;;;;;;;;;;;;5092210;28;1422;-72
2022/08/27 07:47:15;;;;;;;;;;;;;;;;;;5091952;28;1130;-71
2022/08/27 07:49:41;;;;;;;;;;;;;;;;;;5074034;28;1213;-71
2022/08/27 07:52:07;;;;;;;;;;;;;;;;;;5073504;28;1233;-72
2022/08/27 07:54:33;;;;;;;;;;;;;;;;;;5092267;28;1293;-72
2022/08/27 07:57:01;;;;;;;;;;;;;;;;;;5091870;28;1103;-73
2022/08/27 07:59:27;;;;;;;;;;;;;;;;;;5073571;28;1926;-73
2022/08/27 08:01:54;;;;;;;;;;;;;;;;;;5091390;28;796;-73
2022/08/27 08:04:21;;;;;;;;;;;;;;;;;;5091524;28;1394;-72
2022/08/27 08:06:47;;;;;;;;;;;;;;;;;;5092180;28;807;-73
2022/08/27 08:09:13;;;;;;;;;;;;;;;;;;5073578;28;1274;-73
2022/08/27 08:11:40;;;;;;;;;;;;;;;;;;5082680;28;1656;-73
2022/08/27 08:14:08;;;;;;;;;;;;;;;;;;5055422;28;1643;-72
2022/08/27 08:16:34;;;;;;;;;;;;;;;;;;5071228;28;1209;-72
2022/08/27 08:19:00;;;;;;;;;;;;;;;;;;5053438;28;2537;-72
2022/08/27 08:21:27;;;;;;;;;;;;;;;;;;5070954;28;949;-71
2022/08/27 08:23:53;;;;;;;;;;;;;;;;;;5071201;28;1274;-72
2022/08/27 08:26:19;;;;;;;;;;;;;;;;;;5071251;28;1068;-73
2022/08/27 08:28:46;;;;;;;;;;;;;;;;;;5071165;28;1075;-73
2022/08/27 08:31:14;;;;;;;;;;;;;;;;;;5071202;28;1076;-72
2022/08/27 08:33:40;;;;;;;;;;;;;;;;;;5071098;28;1367;-71
2022/08/27 08:36:07;;;;;;;;;;;;;;;;;;5071072;28;784;-71
2022/08/27 08:38:33;;;;;;;;;;;;;;;;;;5071469;28;945;-73
2022/08/27 08:41:00;;;;;;;;;;;;;;;;;;5070813;28;1910;-73
2022/08/27 08:43:29;;;;;;;;;;;;;;;;;;5051385;28;1633;-72
2022/08/27 08:45:55;;;;;;;;;;;;;;;;;;5070867;28;1135;-72
2022/08/27 08:48:23;;;;;;;;;;;;;;;;;;5070913;28;1079;-72
2022/08/27 08:50:51;;;;;;;;;;;;;;;;;;5070853;28;1412;-72
2022/08/27 08:53:19;;;;;;;;;;;;;;;;;;5070089;28;1313;-71
2022/08/27 08:55:47;;;;;;;;;;;;;;;;;;5052909;28;1289;-73
2022/08/27 08:58:15;;;;;;;;;;;;;;;;;;5070615;28;866;-71
2022/08/27 09:00:42;;;;;;;;;;;;;;;;;;5070806;28;1981;-71
2022/08/27 09:03:11;;;;;;;;;;;;;;;;;;5052184;28;1388;-73
2022/08/27 09:05:39;;;;;;;;;;;;;;;;;;5070677;28;930;-73
2022/08/27 09:08:06;;;;;;;;;;;;;;;;;;5070787;28;1397;-71
2022/08/27 09:10:34;;;;;;;;;;;;;;;;;;5070577;28;945;-74
2022/08/27 09:13:01;;;;;;;;;;;;;;;;;;5070423;28;1306;-73
2022/08/27 09:15:28;;;;;;;;;;;;;;;;;;5070690;28;1064;-73
2022/08/27 09:18:03;;;;;;;;;;;;;;;;;;5070841;28;797;-74
2022/08/27 09:20:29;;;;;;;;;;;;;;;;;;5086915;22;3642;-74
2022/08/27 09:23:00;;;;;;;;;;;;;;;;;;5070689;28;1007;-75
2022/08/27 09:25:26;;;;;;;;;;;;;;;;;;5070777;28;960;-74
2022/08/27 09:27:55;;;;;;;;;;;;;;;;;;5070442;28;893;-74
2022/08/27 09:30:21;;;;;;;;;;;;;;;;;;5070586;28;1360;-74
2022/08/27 09:32:54;;;;;;;;;;;;;;;;;;5055159;28;1400;-75
2022/08/27 09:35:20;;;;;;;;;;;;;;;;;;5074243;28;1079;-75
2022/08/27 09:37:47;;;;;;;;;;;;;;;;;;5056099;28;1112;-75
2022/08/27 09:40:16;;;;;;;;;;;;;;;;;;5082580;28;1969;-74
2022/08/27 09:42:43;;;;;;;;;;;;;;;;;;5093770;28;1015;-74
2022/08/27 09:45:10;;;;;;;;;;;;;;;;;;5094189;28;877;-74
2022/08/27 09:47:43;;;;;;;;;;;;;;;;;;5094228;28;999;-74
2022/08/27 09:50:09;;;;;;;;;;;;;;;;;;5094421;28;1361;-74
2022/08/27 09:52:36;;;;;;;;;;;;;;;;;;5093859;28;914;-74
2022/08/27 09:55:03;;;;;;;;;;;;;;;;;;5094337;28;849;-73
2022/08/27 09:57:33;;;;;;;;;;;;;;;;;;5094071;28;1114;-74
2022/08/27 09:59:59;;;;;;;;;;;;;;;;;;5093857;28;1914;-74
2022/08/27 10:02:26;;;;;;;;;;;;;;;;;;5088599;28;1278;-74
2022/08/27 10:04:53;;;;;;;;;;;;;;;;;;5073079;28;1252;-74
2022/08/27 10:07:22;;;;;;;;;;;;;;;;;;5069744;28;1392;-73
2022/08/27 10:09:50;;;;;;;;;;;;;;;;;;5073239;28;1363;-74
2022/08/27 10:12:18;;;;;;;;;;;;;;;;;;5073511;28;1122;-74
2022/08/27 10:14:46;;;;;;;;;;;;;;;;;;5073153;28;1383;-75
2022/08/27 10:17:14;;;;;;;;;;;;;;;;;;5071291;28;1347;-73
2022/08/27 10:19:43;;;;;;;;;;;;;;;;;;5076362;28;1980;-73
2022/08/27 10:22:12;;;;;;;;;;;;;;;;;;5070356;28;1288;-73
2022/08/27 10:24:50;;;;;;;;;;;;;;;;;;5064382;28;1526;-73
2022/08/27 10:27:18;;;;;;;;;;;;;;;;;;5073185;28;1405;-73
2022/08/27 10:29:48;;;;;;;;;;;;;;;;;;5073045;28;1270;-73
2022/08/27 10:32:18;;;;;;;;;;;;;;;;;;5071435;28;1478;-73
2022/08/27 10:34:45;;;;;;;;;;;;;;;;;;5073108;28;1137;-73
2022/08/27 10:37:14;;;;;;;;;;;;;;;;;;5073505;28;1132;-73
2022/08/27 10:39:44;;;;;;;;;;;;;;;;;;5072792;28;1922;-73
2022/08/27 10:42:15;;;;;;;;;;;;;;;;;;5072603;28;1067;-74
2022/08/27 10:44:46;;;;;;;;;;;;;;;;;;5072625;28;1107;-73
2022/08/27 10:47:18;;;;;;;;;;;;;;;;;;5069725;28;1530;-74
2022/08/27 10:49:46;;;;;;;;;;;;;;;;;;5049902;28;1389;-73
2022/08/27 10:52:15;;;;;;;;;;;;;;;;;;5054634;28;1284;-73
2022/08/27 10:54:42;;;;;;;;;;;;;;;;;;5071970;28;1466;-73
2022/08/27 10:57:11;;;;;;;;;;;;;;;;;;5072859;28;1147;-73
2022/08/27 10:59:38;;;;;;;;;;;;;;;;;;5072659;28;1910;-73
2022/08/27 11:02:07;;;;;;;;;;;;;;;;;;5072732;28;1071;-73
2022/08/27 11:04:35;;;;;;;;;;;;;;;;;;5072882;28;1055;-73
2022/08/27 11:07:03;;;;;;;;;;;;;;;;;;5072649;28;917;-73
2022/08/27 11:09:33;;;;;;;;;;;;;;;;;;5071193;28;1380;-73
2022/08/27 11:12:00;;;;;;;;;;;;;;;;;;5072136;28;1271;-74
2022/08/27 11:14:28;;;;;;;;;;;;;;;;;;5063577;28;1367;-73
2022/08/27 11:16:55;;;;;;;;;;;;;;;;;;5072475;28;1206;-73
2022/08/27 11:19:25;;;;;;;;;;;;;;;;;;5073197;28;1263;-73
2022/08/27 11:21:59;;;;;;;;;;;;;;;;;;5071663;28;1914;-72
2022/08/27 11:24:27;;;;;;;;;;;;;;;;;;5072307;28;945;-73
2022/08/27 11:26:54;;;;;;;;;;;;;;;;;;5072190;28;1114;-74
2022/08/27 11:29:22;;;;;;;;;;;;;;;;;;5070763;28;1410;-72
2022/08/27 11:31:50;;;;;;;;;;;;;;;;;;5071431;28;1123;-73
2022/08/27 11:34:17;;;;;;;;;;;;;;;;;;5071826;28;802;-74
2022/08/27 11:36:48;;;;;;;;;;;;;;;;;;5075462;28;1546;-73
2022/08/27 11:39:16;;;;;;;;;;;;;;;;;;5052162;28;1092;-73
2022/08/27 11:41:51;;;;;;;;;;;;;;;;;;5051307;28;1918;-73
2022/08/27 11:44:17;;;;;;;;;;;;;;;;;;5051959;28;1123;-73
2022/08/27 11:46:44;;;;;;;;;;;;;;;;;;5054370;28;1411;-73
2022/08/27 11:49:11;;;;;;;;;;;;;;;;;;5063657;28;1333;-73
2022/08/27 11:51:38;;;;;;;;;;;;;;;;;;5071271;28;1391;-73
2022/08/27 11:54:07;;;;;;;;;;;;;;;;;;5051886;28;1345;-74
2022/08/27 11:56:39;;;;;;;;;;;;;;;;;;5084176;28;1218;-74
2022/08/27 11:59:09;;;;;;;;;;;;;;;;;;5060357;28;1604;-74
2022/08/27 12:01:37;;;;;;;;;;;;;;;;;;5068931;28;1995;-73
2022/08/27 12:04:05;;;;;;;;;;;;;;;;;;5069339;28;1059;-74
2022/08/27 12:06:40;;;;;;;;;;;;;;;;;;5069260;28;1031;-74
2022/08/27 12:09:13;;;;;;;;;;;;;;;;;;5069405;28;941;-74
2022/08/27 12:11:41;;;;;;;;;;;;;;;;;;5050730;28;1429;-73
2022/08/27 12:14:11;;;;;;;;;;;;;;;;;;5069244;28;936;-73
2022/08/27 12:16:40;;;;;;;;;;;;;;;;;;5050120;28;1532;-73
2022/08/27 12:19:11;;;;;;;;;;;;;;;;;;5069099;28;1150;-73
2022/08/27 12:21:42;;;;;;;;;;;;;;;;;;5068662;28;1973;-74
2022/08/27 12:24:13;;;;;;;;;;;;;;;;;;5069121;28;905;-74
2022/08/27 12:26:40;;;;;;;;;;;;;;;;;;5069148;28;1103;-74
2022/08/27 12:29:22;;;;;;;;;;;;;;;;;;5048701;28;1236;-74
2022/08/27 12:31:48;;;;;;;;;;;;;;;;;;5067448;28;1417;-74
2022/08/27 12:34:14;;;;;;;;;;;;;;;;;;5051220;28;1448;-74
2022/08/27 12:36:40;;;;;;;;;;;;;;;;;;5072181;28;1431;-75
2022/08/27 12:39:11;;;;;;;;;;;;;;;;;;5072431;28;1267;-74
2022/08/27 12:41:38;;;;;;;;;;;;;;;;;;5049918;28;1914;-73
2022/08/27 12:44:06;;;;;;;;;;;;;;;;;;5068142;28;1385;-74
2022/08/27 12:46:32;;;;;;;;;;;;;;;;;;5068872;28;1079;-74
2022/08/27 12:48:59;;;;;;;;;;;;;;;;;;5064771;28;1459;-74
2022/08/27 12:51:25;;;;;;;;;;;;;;;;;;5048839;28;1396;-74
2022/08/27 12:53:52;;;;;;;;;;;;;;;;;;5067381;28;1404;-74
2022/08/27 12:56:22;;;;;;;;;;;;;;;;;;5065521;28;1222;-73
2022/08/27 12:58:50;;;;;;;;;;;;;;;;;;5054559;28;1443;-73
2022/08/27 13:01:21;;;;;;;;;;;;;;;;;;5067539;28;1918;-73
2022/08/27 13:03:47;;;;;;;;;;;;;;;;;;5050265;28;1059;-73
2022/08/27 13:06:14;;;;;;;;;;;;;;;;;;5069405;28;1068;-74
2022/08/27 13:08:40;;;;;;;;;;;;;;;;;;5072408;28;991;-73
2022/08/27 13:11:07;;;;;;;;;;;;;;;;;;5072391;28;1359;-73
2022/08/27 13:13:35;;;;;;;;;;;;;;;;;;5071709;28;1466;-72
2022/08/27 13:16:03;;;;;;;;;;;;;;;;;;5070439;28;1470;-73
2022/08/27 13:18:29;;;;;;;;;;;;;;;;;;5072393;28;880;-74
2022/08/27 13:21:00;;;;;;;;;;;;;;;;;;5071980;28;1914;-73
2022/08/27 13:23:27;;;;;;;;;;;;;;;;;;5072006;28;790;-73
2022/08/27 13:25:54;;;;;;;;;;;;;;;;;;5054240;28;1170;-73
2022/08/27 13:28:21;;;;;;;;;;;;;;;;;;5070577;28;1139;-74
2022/08/27 13:30:47;;;;;;;;;;;;;;;;;;5072165;28;1345;-73
2022/08/27 13:33:16;;;;;;;;;;;;;;;;;;5072303;28;798;-74
2022/08/27 13:35:43;;;;;;;;;;;;;;;;;;5070759;28;1483;-74
2022/08/27 13:38:09;;;;;;;;;;;;;;;;;;5078432;28;1308;-74
2022/08/27 13:40:36;;;;;;;;;;;;;;;;;;5070196;28;1918;-74
2022/08/27 13:43:04;;;;;;;;;;;;;;;;;;5063403;28;1149;-74
2022/08/27 13:45:30;;;;;;;;;;;;;;;;;;5073152;28;961;-75
2022/08/27 13:47:56;;;;;;;;;;;;;;;;;;5051337;28;1408;-75
2022/08/27 13:50:24;;;;;;;;;;;;;;;;;;5074528;28;1418;-75
2022/08/27 13:55:34;;;;;;;;;;;;;;;;;;5074071;28;858;-74
2022/08/27 13:58:11;;;;;;;;;;;;;;;;;;5073837;28;1115;-75
2022/08/27 14:00:37;;;;;;;;;;;;;;;;;;5073516;28;1977;-74
2022/08/27 14:03:04;;;;;;;;;;;;;;;;;;5073416;28;1086;-75
2022/08/27 14:05:32;;;;;;;;;;;;;;;;;;5074953;28;1407;-75
2022/08/27 14:07:59;;;;;;;;;;;;;;;;;;5074102;28;850;-75
2022/08/27 14:10:30;;;;;;;;;;;;;;;;;;5073731;28;1353;-75
2022/08/27 14:12:57;;;;;;;;;;;;;;;;;;5071817;28;1468;-75
2022/08/27 14:15:24;;;;;;;;;;;;;;;;;;5045250;28;1277;-75
2022/08/27 14:17:50;;;;;;;;;;;;;;;;;;5070955;28;796;-74
2022/08/27 14:20:17;;;;;;;;;;;;;;;;;;5070527;28;1421;-75
2022/08/27 14:22:45;;;;;;;;;;;;;;;;;;5051499;28;1926;-74
2022/08/27 14:25:12;;;;;;;;;;;;;;;;;;5070528;28;1483;-75
2022/08/27 14:27:39;;;;;;;;;;;;;;;;;;5068521;28;2101;-74
2022/08/27 14:30:05;;;;;;;;;;;;;;;;;;5069098;28;1408;-76
2022/08/27 14:32:32;;;;;;;;;;;;;;;;;;5052165;28;1299;-76
2022/08/27 14:34:58;;;;;;;;;;;;;;;;;;5053183;28;1144;-75
2022/08/27 14:37:24;;;;;;;;;;;;;;;;;;5071134;28;1086;-74
2022/08/27 14:39:51;;;;;;;;;;;;;;;;;;5070931;28;1334;-74
2022/08/27 14:42:18;;;;;;;;;;;;;;;;;;5070721;28;1975;-74
2022/08/27 14:44:45;;;;;;;;;;;;;;;;;;5071429;28;1419;-74
2022/08/27 14:47:11;;;;;;;;;;;;;;;;;;5071293;28;1040;-74
2022/08/27 14:49:38;;;;;;;;;;;;;;;;;;5040384;28;1467;-74
2022/08/27 14:52:05;;;;;;;;;;;;;;;;;;5068461;28;1165;-75
2022/08/27 14:54:32;;;;;;;;;;;;;;;;;;5070739;28;1136;-75
2022/08/27 14:56:59;;;;;;;;;;;;;;;;;;5070531;28;1028;-75
2022/08/27 14:59:25;;;;;;;;;;;;;;;;;;5068631;28;1454;-74
2022/08/27 15:01:52;;;;;;;;;;;;;;;;;;5068605;28;1967;-75
2022/08/27 15:04:18;;;;;;;;;;;;;;;;;;5066091;28;1466;-74
2022/08/27 15:06:44;;;;;;;;;;;;;;;;;;5065334;28;1111;-74
2022/08/27 15:09:10;;;;;;;;;;;;;;;;;;5059285;28;1391;-74
2022/08/27 15:11:37;;;;;;;;;;;;;;;;;;5063719;28;1424;-74
2022/08/27 15:14:05;;;;;;;;;;;;;;;;;;5072857;28;1087;-75
2022/08/27 15:16:32;;;;;;;;;;;;;;;;;;5071524;28;1447;-75
2022/08/27 15:18:59;;;;;;;;;;;;;;;;;;5072385;28;877;-76
2022/08/27 15:21:26;;;;;;;;;;;;;;;;;;5070383;28;1918;-74
2022/08/27 15:23:53;;;;;;;;;;;;;;;;;;5072191;28;1154;-75
2022/08/27 15:28:52;;;;;;;;;;;;;;;;;;5040134;28;1613;-76
2022/08/27 15:31:20;;;;;;;;;;;;;;;;;;5032031;28;1296;-74
2022/08/27 15:33:46;;;;;;;;;;;;;;;;;;5032925;28;1009;-76
2022/08/27 15:36:12;;;;;;;;;;;;;;;;;;5031398;28;1144;-76
2022/08/27 15:38:38;;;;;;;;;;;;;;;;;;5051609;28;1416;-76
2022/08/27 15:41:05;;;;;;;;;;;;;;;;;;5060654;28;1977;-76
2022/08/27 15:43:31;;;;;;;;;;;;;;;;;;5051873;28;1118;-75
2022/08/27 15:45:58;;;;;;;;;;;;;;;;;;5050401;28;1820;-76
2022/08/27 15:48:25;;;;;;;;;;;;;;;;;;5042532;28;1429;-76
2022/08/27 15:50:51;;;;;;;;;;;;;;;;;;5035491;28;1052;-76
2022/08/27 15:53:18;;;;;;;;;;;;;;;;;;5051382;28;1234;-76
2022/08/27 15:55:44;;;;;;;;;;;;;;;;;;5051774;28;914;-76
2022/08/27 15:58:11;;;;;;;;;;;;;;;;;;5051547;28;1425;-76
2022/08/27 16:00:37;;;;;;;;;;;;;;;;;;5051656;28;886;-76
2022/08/27 16:03:05;;;;;;;;;;;;;;;;;;5051244;28;1910;-76
2022/08/27 16:05:33;;;;;;;;;;;;;;;;;;5051663;28;1119;-76
2022/08/27 16:07:59;;;;;;;;;;;;;;;;;;5051329;28;1328;-76
2022/08/27 16:10:26;;;;;;;;;;;;;;;;;;5051478;28;941;-76
2022/08/27 16:12:52;;;;;;;;;;;;;;;;;;5051159;28;1059;-76
2022/08/27 16:15:19;;;;;;;;;;;;;;;;;;5051507;28;925;-76
2022/08/27 16:17:45;;;;;;;;;;;;;;;;;;5051307;28;1382;-76
2022/08/27 16:20:12;;;;;;;;;;;;;;;;;;5051383;28;1134;-75
2022/08/27 16:22:40;;;;;;;;;;;;;;;;;;5050936;28;1919;-76
2022/08/27 16:25:07;;;;;;;;;;;;;;;;;;5033485;28;1130;-76
2022/08/27 16:27:33;;;;;;;;;;;;;;;;;;5033130;28;1395;-76
2022/08/27 16:29:59;;;;;;;;;;;;;;;;;;5033471;28;1156;-77
2022/08/27 16:32:27;;;;;;;;;;;;;;;;;;5051238;28;1083;-77
2022/08/27 16:34:53;;;;;;;;;;;;;;;;;;5051332;28;1196;-76
2022/08/27 16:37:20;;;;;;;;;;;;;;;;;;5051548;28;1262;-75
2022/08/27 16:39:47;;;;;;;;;;;;;;;;;;5049790;28;1439;-75
2022/08/27 16:42:13;;;;;;;;;;;;;;;;;;5049996;28;1918;-76
2022/08/27 16:44:40;;;;;;;;;;;;;;;;;;5053735;28;951;-79
2022/08/27 16:47:06;;;;;;;;;;;;;;;;;;5052730;28;1404;-78
2022/08/27 16:52:16;;;;;;;;;;;;;;;;;;5050948;28;1021;-76
2022/08/27 16:54:42;;;;;;;;;;;;;;;;;;5051045;28;985;-75
2022/08/27 16:57:10;;;;;;;;;;;;;;;;;;5051099;28;1389;-75
2022/08/27 16:59:36;;;;;;;;;;;;;;;;;;5050827;28;865;-75
2022/08/27 17:02:02;;;;;;;;;;;;;;;;;;5050671;28;1914;-76
2022/08/27 17:04:29;;;;;;;;;;;;;;;;;;5051057;28;1020;-76
2022/08/27 17:06:55;;;;;;;;;;;;;;;;;;5033032;28;1416;-76
2022/08/27 17:09:21;;;;;;;;;;;;;;;;;;5051045;28;1178;-76
2022/08/27 17:11:53;;;;;;;;;;;;;;;;;;5032949;28;1242;-76
2022/08/27 17:14:21;;;;;;;;;;;;;;;;;;5032284;28;1542;-75
2022/08/27 17:16:48;;;;;;;;;;;;;;;;;;5050615;28;1328;-75
2022/08/27 17:19:16;;;;;;;;;;;;;;;;;;5050978;28;870;-76